sensor_id;sensor_type;location;lat;lon;timestamp;P1;durP1;ratioP1;P2;durP2;ratioP2
10463;SDS011;5279;42.048;24.638;2023-03-18T00:00:44;1.10;;;1.10;;
10463;SDS011;5279;42.048;24.638;2023-03-18T00:03:12;1.40;;;1.30;;
10463;SDS011;5279;42.048;24.638;2023-03-18T00:05:39;1.40;;;1.30;;
10463;SDS011;5279;42.048;24.638;2023-03-18T00:08:07;1.50;;;1.10;;
10463;SDS011;5279;42.048;24.638;2023-03-18T00:10:35;1.00;;;1.00;;
10463;SDS011;5279;42.048;24.638;2023-03-18T00:13:03;1.30;;;1.20;;
10463;SDS011;5279;42.048;24.638;2023-03-18T00:15:30;2.00;;;1.37;;
10463;SDS011;5279;42.048;24.638;2023-03-18T00:17:57;1.40;;;1.10;;
10463;SDS011;5279;42.048;24.638;2023-03-18T00:20:25;1.40;;;1.30;;
10463;SDS011;5279;42.048;24.638;2023-03-18T00:23:03;1.53;;;1.43;;
10463;SDS011;5279;42.048;24.638;2023-03-18T00:25:32;1.00;;;1.00;;
10463;SDS011;5279;42.048;24.638;2023-03-18T00:27:59;1.07;;;1.00;;
10463;SDS011;5279;42.048;24.638;2023-03-18T00:30:26;1.00;;;1.00;;
10463;SDS011;5279;42.048;24.638;2023-03-18T00:32:55;1.40;;;1.30;;
10463;SDS011;5279;42.048;24.638;2023-03-18T00:35:26;1.13;;;1.13;;
10463;SDS011;5279;42.048;24.638;2023-03-18T00:37:55;1.23;;;1.13;;
10463;SDS011;5279;42.048;24.638;2023-03-18T00:40:23;1.30;;;1.20;;
10463;SDS011;5279;42.048;24.638;2023-03-18T00:43:07;1.10;;;1.10;;
10463;SDS011;5279;42.048;24.638;2023-03-18T00:45:35;1.50;;;1.40;;
10463;SDS011;5279;42.048;24.638;2023-03-18T00:48:03;1.30;;;1.20;;
10463;SDS011;5279;42.048;24.638;2023-03-18T00:50:33;1.03;;;1.03;;
10463;SDS011;5279;42.048;24.638;2023-03-18T00:53:00;2.63;;;1.50;;
10463;SDS011;5279;42.048;24.638;2023-03-18T00:55:27;1.50;;;1.40;;
10463;SDS011;5279;42.048;24.638;2023-03-18T00:57:54;1.47;;;1.37;;
10463;SDS011;5279;42.048;24.638;2023-03-18T01:00:22;1.40;;;1.30;;
10463;SDS011;5279;42.048;24.638;2023-03-18T01:02:51;1.50;;;1.40;;
10463;SDS011;5279;42.048;24.638;2023-03-18T01:05:18;1.60;;;1.50;;
10463;SDS011;5279;42.048;24.638;2023-03-18T01:07:47;1.40;;;1.30;;
10463;SDS011;5279;42.048;24.638;2023-03-18T01:10:15;1.10;;;1.03;;
10463;SDS011;5279;42.048;24.638;2023-03-18T01:12:42;1.50;;;1.40;;
10463;SDS011;5279;42.048;24.638;2023-03-18T01:15:12;1.53;;;1.43;;
10463;SDS011;5279;42.048;24.638;2023-03-18T01:17:41;1.40;;;1.30;;
10463;SDS011;5279;42.048;24.638;2023-03-18T01:20:08;1.47;;;1.37;;
10463;SDS011;5279;42.048;24.638;2023-03-18T01:22:38;1.20;;;1.10;;
10463;SDS011;5279;42.048;24.638;2023-03-18T01:25:08;1.10;;;0.90;;
10463;SDS011;5279;42.048;24.638;2023-03-18T01:27:37;1.53;;;1.40;;
10463;SDS011;5279;42.048;24.638;2023-03-18T01:30:05;1.13;;;1.07;;
10463;SDS011;5279;42.048;24.638;2023-03-18T01:32:33;1.40;;;1.30;;
10463;SDS011;5279;42.048;24.638;2023-03-18T01:35:00;1.70;;;1.60;;
10463;SDS011;5279;42.048;24.638;2023-03-18T01:37:27;1.63;;;1.53;;
10463;SDS011;5279;42.048;24.638;2023-03-18T01:39:55;1.57;;;1.37;;
10463;SDS011;5279;42.048;24.638;2023-03-18T01:42:24;1.97;;;1.40;;
10463;SDS011;5279;42.048;24.638;2023-03-18T01:47:37;1.30;;;1.10;;
10463;SDS011;5279;42.048;24.638;2023-03-18T01:50:04;2.07;;;1.67;;
10463;SDS011;5279;42.048;24.638;2023-03-18T01:52:31;1.10;;;1.10;;
10463;SDS011;5279;42.048;24.638;2023-03-18T01:55:00;1.57;;;1.47;;
10463;SDS011;5279;42.048;24.638;2023-03-18T01:57:32;1.20;;;1.00;;
10463;SDS011;5279;42.048;24.638;2023-03-18T02:00:00;1.40;;;1.30;;
10463;SDS011;5279;42.048;24.638;2023-03-18T02:02:31;1.70;;;1.60;;
10463;SDS011;5279;42.048;24.638;2023-03-18T02:05:00;1.43;;;1.33;;
10463;SDS011;5279;42.048;24.638;2023-03-18T02:07:31;1.70;;;1.60;;
10463;SDS011;5279;42.048;24.638;2023-03-18T02:10:00;2.03;;;1.43;;
10463;SDS011;5279;42.048;24.638;2023-03-18T02:12:29;2.60;;;2.00;;
10463;SDS011;5279;42.048;24.638;2023-03-18T02:15:00;1.97;;;1.73;;
10463;SDS011;5279;42.048;24.638;2023-03-18T02:17:28;1.73;;;1.50;;
10463;SDS011;5279;42.048;24.638;2023-03-18T02:19:58;2.07;;;1.87;;
10463;SDS011;5279;42.048;24.638;2023-03-18T02:22:38;2.20;;;2.00;;
10463;SDS011;5279;42.048;24.638;2023-03-18T02:25:12;1.60;;;1.50;;
10463;SDS011;5279;42.048;24.638;2023-03-18T02:27:49;1.60;;;1.50;;
10463;SDS011;5279;42.048;24.638;2023-03-18T02:30:22;1.90;;;1.40;;
10463;SDS011;5279;42.048;24.638;2023-03-18T02:32:53;2.23;;;1.97;;
10463;SDS011;5279;42.048;24.638;2023-03-18T02:35:21;1.90;;;1.80;;
10463;SDS011;5279;42.048;24.638;2023-03-18T02:37:49;1.93;;;1.70;;
10463;SDS011;5279;42.048;24.638;2023-03-18T02:40:18;1.67;;;1.50;;
10463;SDS011;5279;42.048;24.638;2023-03-18T02:42:50;1.60;;;1.50;;
10463;SDS011;5279;42.048;24.638;2023-03-18T02:45:22;1.60;;;1.27;;
10463;SDS011;5279;42.048;24.638;2023-03-18T02:48:00;1.90;;;1.80;;
10463;SDS011;5279;42.048;24.638;2023-03-18T02:50:30;1.80;;;1.70;;
10463;SDS011;5279;42.048;24.638;2023-03-18T02:52:58;1.50;;;1.40;;
10463;SDS011;5279;42.048;24.638;2023-03-18T02:55:26;1.80;;;1.70;;
10463;SDS011;5279;42.048;24.638;2023-03-18T02:57:55;1.27;;;1.17;;
10463;SDS011;5279;42.048;24.638;2023-03-18T03:00:22;1.93;;;1.70;;
10463;SDS011;5279;42.048;24.638;2023-03-18T03:02:49;1.93;;;1.67;;
10463;SDS011;5279;42.048;24.638;2023-03-18T03:05:16;1.57;;;1.47;;
10463;SDS011;5279;42.048;24.638;2023-03-18T03:07:43;1.47;;;1.20;;
10463;SDS011;5279;42.048;24.638;2023-03-18T03:10:10;2.13;;;1.37;;
10463;SDS011;5279;42.048;24.638;2023-03-18T03:12:37;1.80;;;1.13;;
10463;SDS011;5279;42.048;24.638;2023-03-18T03:15:07;2.40;;;1.50;;
10463;SDS011;5279;42.048;24.638;2023-03-18T03:17:35;1.30;;;1.20;;
10463;SDS011;5279;42.048;24.638;2023-03-18T03:20:02;1.30;;;1.20;;
10463;SDS011;5279;42.048;24.638;2023-03-18T03:22:30;1.50;;;1.40;;
10463;SDS011;5279;42.048;24.638;2023-03-18T03:24:58;1.60;;;1.50;;
10463;SDS011;5279;42.048;24.638;2023-03-18T03:27:25;2.60;;;1.93;;
10463;SDS011;5279;42.048;24.638;2023-03-18T03:29:52;1.50;;;1.40;;
10463;SDS011;5279;42.048;24.638;2023-03-18T03:32:21;1.83;;;1.50;;
10463;SDS011;5279;42.048;24.638;2023-03-18T03:34:48;1.43;;;1.33;;
10463;SDS011;5279;42.048;24.638;2023-03-18T03:37:18;1.40;;;1.30;;
10463;SDS011;5279;42.048;24.638;2023-03-18T03:39:45;1.97;;;1.77;;
10463;SDS011;5279;42.048;24.638;2023-03-18T03:42:13;1.37;;;1.27;;
10463;SDS011;5279;42.048;24.638;2023-03-18T03:44:39;2.40;;;1.40;;
10463;SDS011;5279;42.048;24.638;2023-03-18T03:47:06;2.13;;;1.53;;
10463;SDS011;5279;42.048;24.638;2023-03-18T03:49:35;1.80;;;1.70;;
10463;SDS011;5279;42.048;24.638;2023-03-18T03:52:01;2.40;;;2.17;;
10463;SDS011;5279;42.048;24.638;2023-03-18T03:54:29;2.43;;;2.17;;
10463;SDS011;5279;42.048;24.638;2023-03-18T03:56:56;3.20;;;2.80;;
10463;SDS011;5279;42.048;24.638;2023-03-18T03:59:23;5.80;;;2.67;;
10463;SDS011;5279;42.048;24.638;2023-03-18T04:01:50;2.37;;;2.20;;
10463;SDS011;5279;42.048;24.638;2023-03-18T04:04:17;2.60;;;2.40;;
10463;SDS011;5279;42.048;24.638;2023-03-18T04:06:45;4.67;;;2.90;;
10463;SDS011;5279;42.048;24.638;2023-03-18T04:09:12;2.73;;;2.53;;
10463;SDS011;5279;42.048;24.638;2023-03-18T04:11:41;2.47;;;2.07;;
10463;SDS011;5279;42.048;24.638;2023-03-18T04:14:08;2.00;;;1.80;;
10463;SDS011;5279;42.048;24.638;2023-03-18T04:16:36;2.00;;;1.90;;
10463;SDS011;5279;42.048;24.638;2023-03-18T04:19:03;2.43;;;1.93;;
10463;SDS011;5279;42.048;24.638;2023-03-18T04:21:31;2.10;;;1.90;;
10463;SDS011;5279;42.048;24.638;2023-03-18T04:23:59;2.93;;;2.40;;
10463;SDS011;5279;42.048;24.638;2023-03-18T04:26:32;2.40;;;2.20;;
10463;SDS011;5279;42.048;24.638;2023-03-18T04:28:59;2.10;;;1.90;;
10463;SDS011;5279;42.048;24.638;2023-03-18T04:31:25;3.50;;;1.90;;
10463;SDS011;5279;42.048;24.638;2023-03-18T04:33:52;2.67;;;2.23;;
10463;SDS011;5279;42.048;24.638;2023-03-18T04:36:19;1.90;;;1.77;;
10463;SDS011;5279;42.048;24.638;2023-03-18T04:38:46;2.10;;;1.90;;
10463;SDS011;5279;42.048;24.638;2023-03-18T04:41:15;2.23;;;2.03;;
10463;SDS011;5279;42.048;24.638;2023-03-18T04:43:41;1.47;;;1.37;;
10463;SDS011;5279;42.048;24.638;2023-03-18T04:46:08;1.97;;;1.60;;
10463;SDS011;5279;42.048;24.638;2023-03-18T04:48:36;1.57;;;1.47;;
10463;SDS011;5279;42.048;24.638;2023-03-18T04:51:03;1.27;;;1.27;;
10463;SDS011;5279;42.048;24.638;2023-03-18T04:53:32;2.00;;;1.80;;
10463;SDS011;5279;42.048;24.638;2023-03-18T04:55:59;2.03;;;1.53;;
10463;SDS011;5279;42.048;24.638;2023-03-18T04:58:27;2.27;;;1.57;;
10463;SDS011;5279;42.048;24.638;2023-03-18T05:00:54;1.53;;;1.43;;
10463;SDS011;5279;42.048;24.638;2023-03-18T05:03:21;1.70;;;1.57;;
10463;SDS011;5279;42.048;24.638;2023-03-18T05:05:48;2.00;;;1.60;;
10463;SDS011;5279;42.048;24.638;2023-03-18T05:08:15;1.70;;;1.60;;
10463;SDS011;5279;42.048;24.638;2023-03-18T05:10:42;2.00;;;1.90;;
10463;SDS011;5279;42.048;24.638;2023-03-18T05:13:09;1.57;;;1.47;;
10463;SDS011;5279;42.048;24.638;2023-03-18T05:15:37;2.07;;;1.93;;
10463;SDS011;5279;42.048;24.638;2023-03-18T05:18:04;2.07;;;1.87;;
10463;SDS011;5279;42.048;24.638;2023-03-18T05:20:31;1.80;;;1.70;;
10463;SDS011;5279;42.048;24.638;2023-03-18T05:22:58;1.83;;;1.50;;
10463;SDS011;5279;42.048;24.638;2023-03-18T05:25:24;2.50;;;2.10;;
10463;SDS011;5279;42.048;24.638;2023-03-18T05:27:52;2.10;;;1.90;;
10463;SDS011;5279;42.048;24.638;2023-03-18T05:30:19;2.63;;;1.60;;
10463;SDS011;5279;42.048;24.638;2023-03-18T05:32:48;1.70;;;1.60;;
10463;SDS011;5279;42.048;24.638;2023-03-18T05:35:15;1.30;;;1.20;;
10463;SDS011;5279;42.048;24.638;2023-03-18T05:37:43;1.47;;;1.37;;
10463;SDS011;5279;42.048;24.638;2023-03-18T05:40:12;1.50;;;1.40;;
10463;SDS011;5279;42.048;24.638;2023-03-18T05:42:39;2.07;;;1.57;;
10463;SDS011;5279;42.048;24.638;2023-03-18T05:45:06;1.87;;;1.77;;
10463;SDS011;5279;42.048;24.638;2023-03-18T05:47:33;2.33;;;1.90;;
10463;SDS011;5279;42.048;24.638;2023-03-18T05:50:02;1.63;;;1.53;;
10463;SDS011;5279;42.048;24.638;2023-03-18T05:52:30;4.33;;;2.10;;
10463;SDS011;5279;42.048;24.638;2023-03-18T05:54:56;2.23;;;1.97;;
10463;SDS011;5279;42.048;24.638;2023-03-18T05:57:23;3.10;;;1.90;;
10463;SDS011;5279;42.048;24.638;2023-03-18T05:59:50;2.93;;;1.80;;
10463;SDS011;5279;42.048;24.638;2023-03-18T06:02:20;4.07;;;1.80;;
10463;SDS011;5279;42.048;24.638;2023-03-18T06:04:48;2.57;;;2.20;;
10463;SDS011;5279;42.048;24.638;2023-03-18T06:07:16;2.80;;;2.07;;
10463;SDS011;5279;42.048;24.638;2023-03-18T06:09:43;3.60;;;2.13;;
10463;SDS011;5279;42.048;24.638;2023-03-18T06:12:10;3.40;;;2.17;;
10463;SDS011;5279;42.048;24.638;2023-03-18T06:14:37;2.80;;;2.40;;
10463;SDS011;5279;42.048;24.638;2023-03-18T06:17:04;2.13;;;2.03;;
10463;SDS011;5279;42.048;24.638;2023-03-18T06:19:30;2.40;;;2.20;;
10463;SDS011;5279;42.048;24.638;2023-03-18T06:21:58;5.00;;;1.80;;
10463;SDS011;5279;42.048;24.638;2023-03-18T06:24:35;2.50;;;1.60;;
10463;SDS011;5279;42.048;24.638;2023-03-18T06:27:02;2.17;;;1.97;;
10463;SDS011;5279;42.048;24.638;2023-03-18T06:29:29;2.43;;;2.23;;
10463;SDS011;5279;42.048;24.638;2023-03-18T06:31:56;3.03;;;2.43;;
10463;SDS011;5279;42.048;24.638;2023-03-18T06:34:23;4.33;;;3.33;;
10463;SDS011;5279;42.048;24.638;2023-03-18T06:36:50;2.63;;;2.40;;
10463;SDS011;5279;42.048;24.638;2023-03-18T06:39:18;2.93;;;2.73;;
10463;SDS011;5279;42.048;24.638;2023-03-18T06:41:46;2.10;;;1.90;;
10463;SDS011;5279;42.048;24.638;2023-03-18T06:44:13;2.30;;;2.10;;
10463;SDS011;5279;42.048;24.638;2023-03-18T06:46:41;4.97;;;2.60;;
10463;SDS011;5279;42.048;24.638;2023-03-18T06:49:08;3.93;;;2.10;;
10463;SDS011;5279;42.048;24.638;2023-03-18T06:51:35;2.73;;;2.30;;
10463;SDS011;5279;42.048;24.638;2023-03-18T06:54:02;2.37;;;1.90;;
10463;SDS011;5279;42.048;24.638;2023-03-18T06:56:29;4.40;;;2.63;;
10463;SDS011;5279;42.048;24.638;2023-03-18T06:59:00;6.13;;;3.03;;
10463;SDS011;5279;42.048;24.638;2023-03-18T07:01:27;7.03;;;4.07;;
10463;SDS011;5279;42.048;24.638;2023-03-18T07:03:54;6.30;;;5.13;;
10463;SDS011;5279;42.048;24.638;2023-03-18T07:06:23;6.90;;;5.17;;
10463;SDS011;5279;42.048;24.638;2023-03-18T07:08:50;7.40;;;3.67;;
10463;SDS011;5279;42.048;24.638;2023-03-18T07:11:17;4.77;;;3.83;;
10463;SDS011;5279;42.048;24.638;2023-03-18T07:13:43;6.37;;;3.93;;
10463;SDS011;5279;42.048;24.638;2023-03-18T07:16:12;5.13;;;4.17;;
10463;SDS011;5279;42.048;24.638;2023-03-18T07:18:40;3.73;;;3.07;;
10463;SDS011;5279;42.048;24.638;2023-03-18T07:21:07;3.20;;;2.90;;
10463;SDS011;5279;42.048;24.638;2023-03-18T07:23:35;3.00;;;2.57;;
10463;SDS011;5279;42.048;24.638;2023-03-18T07:26:05;3.53;;;3.13;;
10463;SDS011;5279;42.048;24.638;2023-03-18T07:28:33;4.03;;;2.90;;
10463;SDS011;5279;42.048;24.638;2023-03-18T07:31:01;5.40;;;4.17;;
10463;SDS011;5279;42.048;24.638;2023-03-18T07:33:29;5.00;;;3.43;;
10463;SDS011;5279;42.048;24.638;2023-03-18T07:35:56;4.37;;;3.03;;
10463;SDS011;5279;42.048;24.638;2023-03-18T07:38:23;3.10;;;2.17;;
10463;SDS011;5279;42.048;24.638;2023-03-18T07:40:50;3.27;;;2.73;;
10463;SDS011;5279;42.048;24.638;2023-03-18T07:43:18;2.40;;;2.20;;
10463;SDS011;5279;42.048;24.638;2023-03-18T07:45:45;2.50;;;2.27;;
10463;SDS011;5279;42.048;24.638;2023-03-18T07:48:11;2.27;;;2.03;;
10463;SDS011;5279;42.048;24.638;2023-03-18T07:50:40;2.60;;;2.40;;
10463;SDS011;5279;42.048;24.638;2023-03-18T07:53:06;10.53;;;6.40;;
10463;SDS011;5279;42.048;24.638;2023-03-18T07:55:33;3.40;;;3.10;;
10463;SDS011;5279;42.048;24.638;2023-03-18T07:58:00;4.23;;;3.83;;
10463;SDS011;5279;42.048;24.638;2023-03-18T08:00:28;3.60;;;3.03;;
10463;SDS011;5279;42.048;24.638;2023-03-18T08:02:55;3.53;;;3.20;;
10463;SDS011;5279;42.048;24.638;2023-03-18T08:05:22;4.10;;;3.40;;
10463;SDS011;5279;42.048;24.638;2023-03-18T08:07:51;3.33;;;2.73;;
10463;SDS011;5279;42.048;24.638;2023-03-18T08:10:17;4.60;;;2.87;;
10463;SDS011;5279;42.048;24.638;2023-03-18T08:12:44;4.07;;;3.20;;
10463;SDS011;5279;42.048;24.638;2023-03-18T08:15:11;3.17;;;2.70;;
10463;SDS011;5279;42.048;24.638;2023-03-18T08:17:38;5.17;;;2.80;;
10463;SDS011;5279;42.048;24.638;2023-03-18T08:20:05;3.33;;;2.30;;
10463;SDS011;5279;42.048;24.638;2023-03-18T08:22:33;2.00;;;1.80;;
10463;SDS011;5279;42.048;24.638;2023-03-18T08:25:01;2.20;;;2.00;;
10463;SDS011;5279;42.048;24.638;2023-03-18T08:27:28;2.53;;;1.97;;
10463;SDS011;5279;42.048;24.638;2023-03-18T08:29:55;2.43;;;2.20;;
10463;SDS011;5279;42.048;24.638;2023-03-18T08:32:22;4.03;;;2.43;;
10463;SDS011;5279;42.048;24.638;2023-03-18T08:34:49;3.23;;;2.80;;
10463;SDS011;5279;42.048;24.638;2023-03-18T08:37:16;4.70;;;3.53;;
10463;SDS011;5279;42.048;24.638;2023-03-18T08:39:43;4.03;;;3.20;;
10463;SDS011;5279;42.048;24.638;2023-03-18T08:42:14;6.03;;;4.60;;
10463;SDS011;5279;42.048;24.638;2023-03-18T08:44:41;7.03;;;5.60;;
10463;SDS011;5279;42.048;24.638;2023-03-18T08:47:08;4.87;;;4.37;;
10463;SDS011;5279;42.048;24.638;2023-03-18T08:49:35;5.07;;;3.77;;
10463;SDS011;5279;42.048;24.638;2023-03-18T08:52:02;6.60;;;4.70;;
10463;SDS011;5279;42.048;24.638;2023-03-18T08:54:31;6.33;;;4.50;;
10463;SDS011;5279;42.048;24.638;2023-03-18T08:56:58;4.17;;;3.43;;
10463;SDS011;5279;42.048;24.638;2023-03-18T08:59:26;5.00;;;3.87;;
10463;SDS011;5279;42.048;24.638;2023-03-18T09:01:53;4.03;;;3.37;;
10463;SDS011;5279;42.048;24.638;2023-03-18T09:04:20;5.07;;;3.90;;
10463;SDS011;5279;42.048;24.638;2023-03-18T09:06:48;9.10;;;6.33;;
10463;SDS011;5279;42.048;24.638;2023-03-18T09:09:15;10.87;;;6.13;;
10463;SDS011;5279;42.048;24.638;2023-03-18T09:11:42;5.40;;;4.50;;
10463;SDS011;5279;42.048;24.638;2023-03-18T09:14:10;6.50;;;3.63;;
10463;SDS011;5279;42.048;24.638;2023-03-18T09:16:38;5.30;;;4.03;;
10463;SDS011;5279;42.048;24.638;2023-03-18T09:19:05;5.57;;;3.97;;
10463;SDS011;5279;42.048;24.638;2023-03-18T09:21:32;8.17;;;6.07;;
10463;SDS011;5279;42.048;24.638;2023-03-18T09:24:00;8.47;;;6.00;;
10463;SDS011;5279;42.048;24.638;2023-03-18T09:26:26;7.80;;;5.27;;
10463;SDS011;5279;42.048;24.638;2023-03-18T09:28:53;7.77;;;5.57;;
10463;SDS011;5279;42.048;24.638;2023-03-18T09:31:22;4.40;;;4.00;;
10463;SDS011;5279;42.048;24.638;2023-03-18T09:33:50;4.70;;;4.07;;
10463;SDS011;5279;42.048;24.638;2023-03-18T09:36:17;6.60;;;4.33;;
10463;SDS011;5279;42.048;24.638;2023-03-18T09:38:44;8.87;;;6.70;;
10463;SDS011;5279;42.048;24.638;2023-03-18T09:41:16;6.77;;;5.73;;
10463;SDS011;5279;42.048;24.638;2023-03-18T09:43:56;6.87;;;4.73;;
10463;SDS011;5279;42.048;24.638;2023-03-18T09:46:35;3.83;;;3.40;;
10463;SDS011;5279;42.048;24.638;2023-03-18T09:49:15;4.90;;;4.10;;
10463;SDS011;5279;42.048;24.638;2023-03-18T09:52:01;7.87;;;3.87;;
10463;SDS011;5279;42.048;24.638;2023-03-18T09:54:39;4.20;;;3.33;;
10463;SDS011;5279;42.048;24.638;2023-03-18T09:57:14;4.53;;;3.57;;
10463;SDS011;5279;42.048;24.638;2023-03-18T09:59:45;3.90;;;3.03;;
10463;SDS011;5279;42.048;24.638;2023-03-18T10:02:17;5.53;;;3.50;;
10463;SDS011;5279;42.048;24.638;2023-03-18T10:04:50;4.40;;;3.23;;
10463;SDS011;5279;42.048;24.638;2023-03-18T10:07:22;5.37;;;3.97;;
10463;SDS011;5279;42.048;24.638;2023-03-18T10:09:55;5.33;;;3.93;;
10463;SDS011;5279;42.048;24.638;2023-03-18T10:12:29;5.27;;;3.50;;
10463;SDS011;5279;42.048;24.638;2023-03-18T10:15:01;5.07;;;3.50;;
10463;SDS011;5279;42.048;24.638;2023-03-18T10:20:49;4.23;;;2.50;;
10463;SDS011;5279;42.048;24.638;2023-03-18T10:23:26;4.27;;;3.00;;
10463;SDS011;5279;42.048;24.638;2023-03-18T10:26:03;3.97;;;3.27;;
10463;SDS011;5279;42.048;24.638;2023-03-18T10:28:43;5.73;;;3.33;;
10463;SDS011;5279;42.048;24.638;2023-03-18T10:31:31;4.90;;;3.33;;
10463;SDS011;5279;42.048;24.638;2023-03-18T10:34:32;4.87;;;3.27;;
10463;SDS011;5279;42.048;24.638;2023-03-18T10:37:09;4.50;;;3.03;;
10463;SDS011;5279;42.048;24.638;2023-03-18T10:39:49;4.43;;;3.43;;
10463;SDS011;5279;42.048;24.638;2023-03-18T10:42:18;5.17;;;3.40;;
10463;SDS011;5279;42.048;24.638;2023-03-18T10:44:47;4.73;;;2.80;;
10463;SDS011;5279;42.048;24.638;2023-03-18T10:47:17;2.80;;;2.57;;
10463;SDS011;5279;42.048;24.638;2023-03-18T10:49:48;3.23;;;2.60;;
10463;SDS011;5279;42.048;24.638;2023-03-18T10:52:28;3.80;;;3.17;;
10463;SDS011;5279;42.048;24.638;2023-03-18T10:54:59;6.10;;;3.23;;
10463;SDS011;5279;42.048;24.638;2023-03-18T10:57:26;4.33;;;2.53;;
10463;SDS011;5279;42.048;24.638;2023-03-18T10:59:53;5.37;;;3.47;;
10463;SDS011;5279;42.048;24.638;2023-03-18T11:02:21;3.03;;;2.83;;
10463;SDS011;5279;42.048;24.638;2023-03-18T11:04:55;2.43;;;1.97;;
10463;SDS011;5279;42.048;24.638;2023-03-18T11:07:29;3.17;;;2.00;;
10463;SDS011;5279;42.048;24.638;2023-03-18T11:10:09;3.47;;;2.70;;
10463;SDS011;5279;42.048;24.638;2023-03-18T11:12:37;3.87;;;2.80;;
10463;SDS011;5279;42.048;24.638;2023-03-18T11:15:06;2.87;;;2.40;;
10463;SDS011;5279;42.048;24.638;2023-03-18T11:17:37;2.30;;;2.03;;
10463;SDS011;5279;42.048;24.638;2023-03-18T11:20:05;2.67;;;2.07;;
10463;SDS011;5279;42.048;24.638;2023-03-18T11:22:47;3.03;;;2.77;;
10463;SDS011;5279;42.048;24.638;2023-03-18T11:25:17;2.80;;;2.60;;
10463;SDS011;5279;42.048;24.638;2023-03-18T11:27:45;2.40;;;2.20;;
10463;SDS011;5279;42.048;24.638;2023-03-18T11:30:14;2.57;;;2.30;;
10463;SDS011;5279;42.048;24.638;2023-03-18T11:32:50;3.63;;;2.43;;
10463;SDS011;5279;42.048;24.638;2023-03-18T11:35:23;2.90;;;2.43;;
10463;SDS011;5279;42.048;24.638;2023-03-18T11:37:58;2.67;;;2.07;;
10463;SDS011;5279;42.048;24.638;2023-03-18T11:40:28;2.20;;;2.00;;
10463;SDS011;5279;42.048;24.638;2023-03-18T11:42:57;2.80;;;2.53;;
10463;SDS011;5279;42.048;24.638;2023-03-18T11:45:30;2.77;;;2.47;;
10463;SDS011;5279;42.048;24.638;2023-03-18T11:48:01;3.27;;;2.50;;
10463;SDS011;5279;42.048;24.638;2023-03-18T11:50:32;2.93;;;1.90;;
10463;SDS011;5279;42.048;24.638;2023-03-18T11:53:09;3.30;;;2.50;;
10463;SDS011;5279;42.048;24.638;2023-03-18T11:55:38;3.37;;;2.40;;
10463;SDS011;5279;42.048;24.638;2023-03-18T11:58:16;2.70;;;2.20;;
10463;SDS011;5279;42.048;24.638;2023-03-18T12:00:58;2.83;;;2.07;;
10463;SDS011;5279;42.048;24.638;2023-03-18T12:03:34;3.60;;;2.63;;
10463;SDS011;5279;42.048;24.638;2023-03-18T12:06:21;2.60;;;2.40;;
10463;SDS011;5279;42.048;24.638;2023-03-18T12:08:55;3.10;;;2.50;;
10463;SDS011;5279;42.048;24.638;2023-03-18T12:11:44;8.07;;;4.53;;
10463;SDS011;5279;42.048;24.638;2023-03-18T12:14:25;13.60;;;6.87;;
10463;SDS011;5279;42.048;24.638;2023-03-18T12:17:00;3.13;;;2.70;;
10463;SDS011;5279;42.048;24.638;2023-03-18T12:19:43;2.43;;;2.20;;
10463;SDS011;5279;42.048;24.638;2023-03-18T12:22:24;2.40;;;2.20;;
10463;SDS011;5279;42.048;24.638;2023-03-18T12:25:10;2.27;;;2.03;;
10463;SDS011;5279;42.048;24.638;2023-03-18T12:27:55;2.60;;;2.30;;
10463;SDS011;5279;42.048;24.638;2023-03-18T12:30:34;4.30;;;2.40;;
10463;SDS011;5279;42.048;24.638;2023-03-18T12:33:17;2.43;;;1.73;;
10463;SDS011;5279;42.048;24.638;2023-03-18T12:35:59;2.40;;;2.20;;
10463;SDS011;5279;42.048;24.638;2023-03-18T12:38:47;2.30;;;2.07;;
10463;SDS011;5279;42.048;24.638;2023-03-18T12:41:36;2.83;;;1.90;;
10463;SDS011;5279;42.048;24.638;2023-03-18T12:44:15;2.20;;;2.00;;
10463;SDS011;5279;42.048;24.638;2023-03-18T12:46:54;1.90;;;1.80;;
10463;SDS011;5279;42.048;24.638;2023-03-18T12:49:26;2.50;;;2.10;;
10463;SDS011;5279;42.048;24.638;2023-03-18T12:51:59;2.47;;;2.10;;
10463;SDS011;5279;42.048;24.638;2023-03-18T12:54:31;2.40;;;2.20;;
10463;SDS011;5279;42.048;24.638;2023-03-18T12:57:09;2.20;;;1.83;;
10463;SDS011;5279;42.048;24.638;2023-03-18T12:59:40;2.70;;;2.10;;
10463;SDS011;5279;42.048;24.638;2023-03-18T13:05:06;1.60;;;1.50;;
10463;SDS011;5279;42.048;24.638;2023-03-18T13:07:46;1.93;;;1.80;;
10463;SDS011;5279;42.048;24.638;2023-03-18T13:10:19;2.57;;;1.97;;
10463;SDS011;5279;42.048;24.638;2023-03-18T13:12:50;3.73;;;2.00;;
10463;SDS011;5279;42.048;24.638;2023-03-18T13:15:21;2.87;;;2.30;;
10463;SDS011;5279;42.048;24.638;2023-03-18T13:17:55;2.07;;;1.70;;
10463;SDS011;5279;42.048;24.638;2023-03-18T13:20:26;2.33;;;1.70;;
10463;SDS011;5279;42.048;24.638;2023-03-18T13:22:59;2.10;;;1.67;;
10463;SDS011;5279;42.048;24.638;2023-03-18T13:25:37;2.13;;;1.90;;
10463;SDS011;5279;42.048;24.638;2023-03-18T13:28:13;1.67;;;1.57;;
10463;SDS011;5279;42.048;24.638;2023-03-18T13:31:00;2.00;;;1.80;;
10463;SDS011;5279;42.048;24.638;2023-03-18T13:33:44;2.03;;;1.75;;
10463;SDS011;5279;42.048;24.638;2023-03-18T13:39:25;1.65;;;1.45;;
10463;SDS011;5279;42.048;24.638;2023-03-18T13:42:22;1.65;;;1.40;;
10463;SDS011;5279;42.048;24.638;2023-03-18T13:44:58;2.15;;;1.95;;
10463;SDS011;5279;42.048;24.638;2023-03-18T13:47:32;2.17;;;1.58;;
10463;SDS011;5279;42.048;24.638;2023-03-18T13:50:03;1.60;;;1.50;;
10463;SDS011;5279;42.048;24.638;2023-03-18T13:52:34;1.60;;;1.50;;
10463;SDS011;5279;42.048;24.638;2023-03-18T13:55:07;1.20;;;1.10;;
10463;SDS011;5279;42.048;24.638;2023-03-18T13:57:47;1.57;;;1.23;;
10463;SDS011;5279;42.048;24.638;2023-03-18T14:00:24;1.67;;;1.17;;
10463;SDS011;5279;42.048;24.638;2023-03-18T14:03:14;1.50;;;1.23;;
10463;SDS011;5279;42.048;24.638;2023-03-18T14:05:44;1.70;;;1.60;;
10463;SDS011;5279;42.048;24.638;2023-03-18T14:17:13;2.03;;;1.20;;
10463;SDS011;5279;42.048;24.638;2023-03-18T14:19:43;5.17;;;2.00;;
10463;SDS011;5279;42.048;24.638;2023-03-18T14:22:13;2.87;;;1.87;;
10463;SDS011;5279;42.048;24.638;2023-03-18T14:24:46;1.67;;;1.57;;
10463;SDS011;5279;42.048;24.638;2023-03-18T14:27:44;1.97;;;1.63;;
10463;SDS011;5279;42.048;24.638;2023-03-18T14:36:00;2.70;;;1.43;;
10463;SDS011;5279;42.048;24.638;2023-03-18T14:38:30;1.47;;;1.37;;
10463;SDS011;5279;42.048;24.638;2023-03-18T14:41:03;1.77;;;1.57;;
10463;SDS011;5279;42.048;24.638;2023-03-18T14:43:42;1.80;;;1.70;;
10463;SDS011;5279;42.048;24.638;2023-03-18T14:46:17;1.73;;;1.40;;
10463;SDS011;5279;42.048;24.638;2023-03-18T14:48:49;1.53;;;1.43;;
10463;SDS011;5279;42.048;24.638;2023-03-18T14:51:18;2.30;;;2.10;;
10463;SDS011;5279;42.048;24.638;2023-03-18T14:53:48;2.20;;;2.00;;
10463;SDS011;5279;42.048;24.638;2023-03-18T14:56:19;2.10;;;1.43;;
10463;SDS011;5279;42.048;24.638;2023-03-18T14:58:49;1.70;;;1.60;;
10463;SDS011;5279;42.048;24.638;2023-03-18T15:01:20;1.90;;;1.60;;
10463;SDS011;5279;42.048;24.638;2023-03-18T15:03:48;1.60;;;1.40;;
10463;SDS011;5279;42.048;24.638;2023-03-18T15:06:19;1.90;;;1.50;;
10463;SDS011;5279;42.048;24.638;2023-03-18T15:08:48;1.43;;;1.33;;
10463;SDS011;5279;42.048;24.638;2023-03-18T15:11:17;2.87;;;1.60;;
10463;SDS011;5279;42.048;24.638;2023-03-18T15:13:49;1.60;;;1.50;;
10463;SDS011;5279;42.048;24.638;2023-03-18T15:16:21;1.80;;;1.70;;
10463;SDS011;5279;42.048;24.638;2023-03-18T15:18:53;2.17;;;1.90;;
10463;SDS011;5279;42.048;24.638;2023-03-18T15:21:21;2.80;;;1.77;;
10463;SDS011;5279;42.048;24.638;2023-03-18T15:23:51;1.50;;;1.40;;
10463;SDS011;5279;42.048;24.638;2023-03-18T15:26:20;1.30;;;1.20;;
10463;SDS011;5279;42.048;24.638;2023-03-18T15:28:53;1.40;;;1.30;;
10463;SDS011;5279;42.048;24.638;2023-03-18T15:31:22;1.40;;;1.30;;
10463;SDS011;5279;42.048;24.638;2023-03-18T15:33:54;2.03;;;1.30;;